Rochelle, Illinois
Current Conditions -  °F | °C
As of 12:35 AM on Thursday 23 Oct 2014 (Local Time) from KRPJ Reporting Station
Clear Clear  
Wind Chill: 32°   Ceiling: Unl
Heat Index: 37°   Visibility: 10mi
Dew Point: 35°   Wind: 6mph
Humidity: 91%   Direction: 130°SE
Pressure: 30.24"   Gusts: NA
Location:  41.93°N, 89.07°W
Report Text: KRPJ 230535Z AUTO 13005KT 10SM CLR 03/02 A3024 RMK AO2 T00280015
Loading
Personal Weather Stations






























Interactive Weather Map New forecast layout! Learn more

10-Day Weather Forecast

Advertisements
Track Severe Weather on mobile